sensor_id;sensor_type;location;lat;lon;timestamp;P1;durP1;ratioP1;P2;durP2;ratioP2
65825;SDS011;52586;-43.152;172.732;2023-05-20T00:02:14;4.25;;;2.33;;
65825;SDS011;52586;-43.152;172.732;2023-05-20T00:04:48;4.70;;;2.30;;
65825;SDS011;52586;-43.152;172.732;2023-05-20T00:07:18;4.10;;;2.63;;
65825;SDS011;52586;-43.152;172.732;2023-05-20T00:09:49;4.45;;;2.38;;
65825;SDS011;52586;-43.152;172.732;2023-05-20T00:12:20;3.90;;;2.60;;
65825;SDS011;52586;-43.152;172.732;2023-05-20T00:14:50;3.92;;;2.17;;
65825;SDS011;52586;-43.152;172.732;2023-05-20T00:17:26;3.28;;;2.60;;
65825;SDS011;52586;-43.152;172.732;2023-05-20T00:19:56;3.15;;;2.22;;
65825;SDS011;52586;-43.152;172.732;2023-05-20T00:22:27;4.10;;;2.22;;
65825;SDS011;52586;-43.152;172.732;2023-05-20T00:24:58;2.35;;;1.95;;
65825;SDS011;52586;-43.152;172.732;2023-05-20T00:27:28;3.47;;;2.30;;
65825;SDS011;52586;-43.152;172.732;2023-05-20T00:29:59;2.67;;;2.10;;
65825;SDS011;52586;-43.152;172.732;2023-05-20T00:32:31;4.00;;;2.30;;
65825;SDS011;52586;-43.152;172.732;2023-05-20T00:35:02;4.20;;;2.67;;
65825;SDS011;52586;-43.152;172.732;2023-05-20T00:37:33;3.58;;;2.20;;
65825;SDS011;52586;-43.152;172.732;2023-05-20T00:40:04;2.63;;;1.98;;
65825;SDS011;52586;-43.152;172.732;2023-05-20T00:42:35;3.65;;;2.35;;
65825;SDS011;52586;-43.152;172.732;2023-05-20T00:45:06;6.25;;;3.15;;
65825;SDS011;52586;-43.152;172.732;2023-05-20T00:47:39;3.50;;;2.17;;
65825;SDS011;52586;-43.152;172.732;2023-05-20T00:50:11;1.60;;;1.10;;
65825;SDS011;52586;-43.152;172.732;2023-05-20T00:52:42;1.75;;;1.17;;
65825;SDS011;52586;-43.152;172.732;2023-05-20T00:55:13;2.03;;;1.55;;
65825;SDS011;52586;-43.152;172.732;2023-05-20T00:57:44;1.50;;;1.30;;
65825;SDS011;52586;-43.152;172.732;2023-05-20T01:00:14;2.60;;;1.65;;
65825;SDS011;52586;-43.152;172.732;2023-05-20T01:02:47;1.25;;;1.15;;
65825;SDS011;52586;-43.152;172.732;2023-05-20T01:05:18;1.13;;;1.02;;
65825;SDS011;52586;-43.152;172.732;2023-05-20T01:07:49;1.38;;;0.90;;
65825;SDS011;52586;-43.152;172.732;2023-05-20T01:10:20;1.13;;;0.95;;
65825;SDS011;52586;-43.152;172.732;2023-05-20T01:12:53;1.02;;;1.00;;
65825;SDS011;52586;-43.152;172.732;2023-05-20T01:15:25;3.03;;;1.70;;
65825;SDS011;52586;-43.152;172.732;2023-05-20T01:18:00;1.55;;;1.40;;
65825;SDS011;52586;-43.152;172.732;2023-05-20T01:20:31;1.23;;;0.90;;
65825;SDS011;52586;-43.152;172.732;2023-05-20T01:23:04;1.20;;;1.10;;
65825;SDS011;52586;-43.152;172.732;2023-05-20T01:25:35;1.20;;;1.10;;
65825;SDS011;52586;-43.152;172.732;2023-05-20T01:28:07;2.28;;;1.50;;
65825;SDS011;52586;-43.152;172.732;2023-05-20T01:30:44;1.85;;;1.63;;
65825;SDS011;52586;-43.152;172.732;2023-05-20T01:33:19;3.67;;;2.13;;
65825;SDS011;52586;-43.152;172.732;2023-05-20T01:35:52;2.67;;;1.90;;
65825;SDS011;52586;-43.152;172.732;2023-05-20T01:38:26;1.45;;;1.20;;
65825;SDS011;52586;-43.152;172.732;2023-05-20T01:40:57;1.27;;;1.17;;
65825;SDS011;52586;-43.152;172.732;2023-05-20T01:43:30;0.85;;;0.85;;
65825;SDS011;52586;-43.152;172.732;2023-05-20T01:46:04;1.30;;;1.10;;
65825;SDS011;52586;-43.152;172.732;2023-05-20T01:48:35;1.35;;;1.00;;
65825;SDS011;52586;-43.152;172.732;2023-05-20T01:51:06;3.80;;;2.65;;
65825;SDS011;52586;-43.152;172.732;2023-05-20T01:53:38;2.33;;;2.13;;
65825;SDS011;52586;-43.152;172.732;2023-05-20T01:56:09;2.03;;;1.83;;
65825;SDS011;52586;-43.152;172.732;2023-05-20T01:58:39;2.30;;;2.10;;
65825;SDS011;52586;-43.152;172.732;2023-05-20T02:01:10;2.22;;;2.03;;
65825;SDS011;52586;-43.152;172.732;2023-05-20T02:03:41;2.25;;;2.05;;
65825;SDS011;52586;-43.152;172.732;2023-05-20T02:06:11;2.28;;;1.58;;
65825;SDS011;52586;-43.152;172.732;2023-05-20T02:08:44;1.55;;;1.35;;
65825;SDS011;52586;-43.152;172.732;2023-05-20T02:11:15;1.50;;;1.13;;
65825;SDS011;52586;-43.152;172.732;2023-05-20T02:13:45;1.15;;;1.05;;
65825;SDS011;52586;-43.152;172.732;2023-05-20T02:16:17;1.40;;;1.10;;
65825;SDS011;52586;-43.152;172.732;2023-05-20T02:18:47;1.40;;;1.30;;
65825;SDS011;52586;-43.152;172.732;2023-05-20T02:21:18;1.20;;;1.10;;
65825;SDS011;52586;-43.152;172.732;2023-05-20T02:23:51;1.38;;;1.27;;
65825;SDS011;52586;-43.152;172.732;2023-05-20T02:26:21;1.50;;;1.40;;
65825;SDS011;52586;-43.152;172.732;2023-05-20T02:28:52;1.45;;;1.20;;
65825;SDS011;52586;-43.152;172.732;2023-05-20T02:31:23;1.60;;;1.27;;
65825;SDS011;52586;-43.152;172.732;2023-05-20T02:33:54;1.40;;;1.30;;
65825;SDS011;52586;-43.152;172.732;2023-05-20T02:36:24;1.10;;;1.00;;
65825;SDS011;52586;-43.152;172.732;2023-05-20T02:38:57;1.40;;;1.30;;
65825;SDS011;52586;-43.152;172.732;2023-05-20T02:41:28;1.50;;;1.40;;
65825;SDS011;52586;-43.152;172.732;2023-05-20T02:43:58;4.38;;;2.00;;
65825;SDS011;52586;-43.152;172.732;2023-05-20T02:46:29;2.25;;;2.05;;
65825;SDS011;52586;-43.152;172.732;2023-05-20T02:49:00;3.35;;;3.05;;
65825;SDS011;52586;-43.152;172.732;2023-05-20T02:51:31;2.58;;;2.38;;
65825;SDS011;52586;-43.152;172.732;2023-05-20T02:54:03;2.33;;;1.77;;
65825;SDS011;52586;-43.152;172.732;2023-05-20T02:56:34;2.55;;;1.42;;
65825;SDS011;52586;-43.152;172.732;2023-05-20T02:59:05;1.50;;;1.20;;
65825;SDS011;52586;-43.152;172.732;2023-05-20T03:01:35;1.33;;;1.08;;
65825;SDS011;52586;-43.152;172.732;2023-05-20T03:04:07;2.08;;;1.08;;
65825;SDS011;52586;-43.152;172.732;2023-05-20T03:06:37;1.40;;;1.30;;
65825;SDS011;52586;-43.152;172.732;2023-05-20T03:09:11;1.30;;;1.20;;
65825;SDS011;52586;-43.152;172.732;2023-05-20T03:11:41;1.10;;;1.00;;
65825;SDS011;52586;-43.152;172.732;2023-05-20T03:14:12;1.23;;;1.10;;
65825;SDS011;52586;-43.152;172.732;2023-05-20T03:16:43;0.80;;;0.80;;
65825;SDS011;52586;-43.152;172.732;2023-05-20T03:19:14;1.67;;;0.90;;
65825;SDS011;52586;-43.152;172.732;2023-05-20T03:21:44;2.05;;;1.05;;
65825;SDS011;52586;-43.152;172.732;2023-05-20T03:24:19;1.15;;;1.08;;
65825;SDS011;52586;-43.152;172.732;2023-05-20T03:26:50;1.23;;;1.13;;
65825;SDS011;52586;-43.152;172.732;2023-05-20T03:29:21;1.45;;;1.10;;
65825;SDS011;52586;-43.152;172.732;2023-05-20T03:31:52;1.50;;;1.10;;
65825;SDS011;52586;-43.152;172.732;2023-05-20T03:34:22;1.05;;;1.00;;
65825;SDS011;52586;-43.152;172.732;2023-05-20T03:36:55;1.48;;;1.20;;
65825;SDS011;52586;-43.152;172.732;2023-05-20T03:39:27;1.30;;;1.20;;
65825;SDS011;52586;-43.152;172.732;2023-05-20T03:41:58;1.75;;;1.42;;
65825;SDS011;52586;-43.152;172.732;2023-05-20T03:44:29;1.40;;;1.10;;
65825;SDS011;52586;-43.152;172.732;2023-05-20T03:47:00;1.15;;;1.05;;
65825;SDS011;52586;-43.152;172.732;2023-05-20T03:49:31;1.58;;;1.33;;
65825;SDS011;52586;-43.152;172.732;2023-05-20T03:52:02;1.75;;;1.40;;
65825;SDS011;52586;-43.152;172.732;2023-05-20T03:54:34;3.97;;;2.75;;
65825;SDS011;52586;-43.152;172.732;2023-05-20T03:57:05;5.57;;;3.88;;
65825;SDS011;52586;-43.152;172.732;2023-05-20T03:59:36;6.55;;;4.78;;
65825;SDS011;52586;-43.152;172.732;2023-05-20T04:02:07;7.38;;;5.55;;
65825;SDS011;52586;-43.152;172.732;2023-05-20T04:04:37;7.50;;;5.60;;
65825;SDS011;52586;-43.152;172.732;2023-05-20T04:07:08;5.75;;;4.22;;
65825;SDS011;52586;-43.152;172.732;2023-05-20T04:09:41;4.63;;;4.13;;
65825;SDS011;52586;-43.152;172.732;2023-05-20T04:12:11;4.38;;;3.97;;
65825;SDS011;52586;-43.152;172.732;2023-05-20T04:14:44;5.35;;;4.60;;
65825;SDS011;52586;-43.152;172.732;2023-05-20T04:17:17;6.13;;;5.50;;
65825;SDS011;52586;-43.152;172.732;2023-05-20T04:19:48;5.47;;;4.97;;
65825;SDS011;52586;-43.152;172.732;2023-05-20T04:22:19;5.43;;;4.93;;
65825;SDS011;52586;-43.152;172.732;2023-05-20T04:24:51;4.93;;;4.43;;
65825;SDS011;52586;-43.152;172.732;2023-05-20T04:27:22;5.32;;;4.82;;
65825;SDS011;52586;-43.152;172.732;2023-05-20T04:29:53;8.55;;;6.93;;
65825;SDS011;52586;-43.152;172.732;2023-05-20T04:32:24;12.25;;;11.00;;
65825;SDS011;52586;-43.152;172.732;2023-05-20T04:34:55;10.07;;;9.07;;
65825;SDS011;52586;-43.152;172.732;2023-05-20T04:37:27;19.77;;;15.25;;
65825;SDS011;52586;-43.152;172.732;2023-05-20T04:39:59;46.58;;;30.75;;
65825;SDS011;52586;-43.152;172.732;2023-05-20T04:42:31;31.48;;;21.75;;
65825;SDS011;52586;-43.152;172.732;2023-05-20T04:45:02;25.88;;;18.42;;
65825;SDS011;52586;-43.152;172.732;2023-05-20T04:47:33;17.98;;;14.43;;
65825;SDS011;52586;-43.152;172.732;2023-05-20T04:50:06;16.33;;;14.02;;
65825;SDS011;52586;-43.152;172.732;2023-05-20T04:52:38;14.55;;;12.48;;
65825;SDS011;52586;-43.152;172.732;2023-05-20T04:55:12;10.88;;;9.55;;
65825;SDS011;52586;-43.152;172.732;2023-05-20T04:57:44;8.57;;;7.63;;
65825;SDS011;52586;-43.152;172.732;2023-05-20T05:00:15;8.30;;;6.28;;
65825;SDS011;52586;-43.152;172.732;2023-05-20T05:02:46;6.57;;;5.60;;
65825;SDS011;52586;-43.152;172.732;2023-05-20T05:05:16;5.78;;;5.28;;
65825;SDS011;52586;-43.152;172.732;2023-05-20T05:07:47;6.07;;;5.20;;
65825;SDS011;52586;-43.152;172.732;2023-05-20T05:10:19;6.10;;;5.57;;
65825;SDS011;52586;-43.152;172.732;2023-05-20T05:12:50;9.10;;;8.20;;
65825;SDS011;52586;-43.152;172.732;2023-05-20T05:15:21;9.77;;;8.75;;
65825;SDS011;52586;-43.152;172.732;2023-05-20T05:17:51;7.32;;;6.63;;
65825;SDS011;52586;-43.152;172.732;2023-05-20T05:20:22;6.45;;;5.40;;
65825;SDS011;52586;-43.152;172.732;2023-05-20T05:22:53;6.22;;;5.63;;
65825;SDS011;52586;-43.152;172.732;2023-05-20T05:25:25;6.70;;;6.07;;
65825;SDS011;52586;-43.152;172.732;2023-05-20T05:27:56;6.28;;;5.25;;
65825;SDS011;52586;-43.152;172.732;2023-05-20T05:30:27;6.97;;;5.18;;
65825;SDS011;52586;-43.152;172.732;2023-05-20T05:32:57;4.70;;;4.30;;
65825;SDS011;52586;-43.152;172.732;2023-05-20T05:35:28;5.03;;;4.35;;
65825;SDS011;52586;-43.152;172.732;2023-05-20T05:37:58;4.40;;;4.00;;
65825;SDS011;52586;-43.152;172.732;2023-05-20T05:40:31;4.45;;;4.05;;
65825;SDS011;52586;-43.152;172.732;2023-05-20T05:43:02;4.00;;;3.70;;
65825;SDS011;52586;-43.152;172.732;2023-05-20T05:45:32;4.38;;;3.97;;
65825;SDS011;52586;-43.152;172.732;2023-05-20T05:48:03;4.13;;;3.63;;
65825;SDS011;52586;-43.152;172.732;2023-05-20T05:50:34;4.45;;;3.70;;
65825;SDS011;52586;-43.152;172.732;2023-05-20T05:53:04;4.25;;;3.50;;
65825;SDS011;52586;-43.152;172.732;2023-05-20T05:55:37;4.35;;;3.50;;
65825;SDS011;52586;-43.152;172.732;2023-05-20T05:58:08;3.72;;;3.30;;
65825;SDS011;52586;-43.152;172.732;2023-05-20T06:00:38;4.10;;;3.70;;
65825;SDS011;52586;-43.152;172.732;2023-05-20T06:03:09;4.68;;;3.72;;
65825;SDS011;52586;-43.152;172.732;2023-05-20T06:05:39;3.70;;;3.40;;
65825;SDS011;52586;-43.152;172.732;2023-05-20T06:08:14;3.58;;;3.28;;
65825;SDS011;52586;-43.152;172.732;2023-05-20T06:10:48;3.75;;;3.40;;
65825;SDS011;52586;-43.152;172.732;2023-05-20T06:13:19;3.28;;;2.88;;
65825;SDS011;52586;-43.152;172.732;2023-05-20T06:15:49;4.25;;;3.47;;
65825;SDS011;52586;-43.152;172.732;2023-05-20T06:18:20;3.75;;;3.13;;
65825;SDS011;52586;-43.152;172.732;2023-05-20T06:20:54;3.50;;;3.20;;
65825;SDS011;52586;-43.152;172.732;2023-05-20T06:23:24;3.22;;;2.92;;
65825;SDS011;52586;-43.152;172.732;2023-05-20T06:25:58;3.95;;;3.45;;
65825;SDS011;52586;-43.152;172.732;2023-05-20T06:28:29;3.85;;;3.03;;
65825;SDS011;52586;-43.152;172.732;2023-05-20T06:31:00;3.30;;;3.00;;
65825;SDS011;52586;-43.152;172.732;2023-05-20T06:33:31;4.22;;;3.20;;
65825;SDS011;52586;-43.152;172.732;2023-05-20T06:36:02;3.00;;;2.70;;
65825;SDS011;52586;-43.152;172.732;2023-05-20T06:38:32;3.17;;;2.83;;
65825;SDS011;52586;-43.152;172.732;2023-05-20T06:41:05;4.15;;;3.10;;
65825;SDS011;52586;-43.152;172.732;2023-05-20T06:43:36;3.58;;;3.25;;
65825;SDS011;52586;-43.152;172.732;2023-05-20T06:46:06;3.75;;;2.80;;
65825;SDS011;52586;-43.152;172.732;2023-05-20T06:48:37;3.95;;;3.20;;
65825;SDS011;52586;-43.152;172.732;2023-05-20T06:51:08;4.93;;;3.15;;
65825;SDS011;52586;-43.152;172.732;2023-05-20T06:53:39;3.85;;;3.25;;
65825;SDS011;52586;-43.152;172.732;2023-05-20T06:56:11;3.17;;;2.78;;
65825;SDS011;52586;-43.152;172.732;2023-05-20T06:58:42;4.13;;;3.28;;
65825;SDS011;52586;-43.152;172.732;2023-05-20T07:01:12;3.10;;;2.67;;
65825;SDS011;52586;-43.152;172.732;2023-05-20T07:03:43;3.30;;;2.83;;
65825;SDS011;52586;-43.152;172.732;2023-05-20T07:06:14;3.28;;;2.97;;
65825;SDS011;52586;-43.152;172.732;2023-05-20T07:08:44;3.10;;;2.80;;
65825;SDS011;52586;-43.152;172.732;2023-05-20T07:11:17;2.88;;;2.58;;
65825;SDS011;52586;-43.152;172.732;2023-05-20T07:13:48;3.20;;;2.90;;
65825;SDS011;52586;-43.152;172.732;2023-05-20T07:16:18;3.85;;;2.85;;
65825;SDS011;52586;-43.152;172.732;2023-05-20T07:18:49;3.40;;;3.08;;
65825;SDS011;52586;-43.152;172.732;2023-05-20T07:21:20;3.80;;;3.10;;
65825;SDS011;52586;-43.152;172.732;2023-05-20T07:23:50;3.63;;;3.00;;
65825;SDS011;52586;-43.152;172.732;2023-05-20T07:26:23;3.65;;;3.35;;
65825;SDS011;52586;-43.152;172.732;2023-05-20T07:28:53;3.35;;;3.00;;
65825;SDS011;52586;-43.152;172.732;2023-05-20T07:31:24;3.70;;;2.90;;
65825;SDS011;52586;-43.152;172.732;2023-05-20T07:33:54;3.50;;;3.13;;
65825;SDS011;52586;-43.152;172.732;2023-05-20T07:36:25;3.25;;;2.95;;
65825;SDS011;52586;-43.152;172.732;2023-05-20T07:38:56;3.63;;;2.80;;
65825;SDS011;52586;-43.152;172.732;2023-05-20T07:41:29;3.75;;;3.30;;
65825;SDS011;52586;-43.152;172.732;2023-05-20T07:44:00;3.08;;;2.63;;
65825;SDS011;52586;-43.152;172.732;2023-05-20T07:46:33;3.10;;;2.60;;
65825;SDS011;52586;-43.152;172.732;2023-05-20T07:49:05;2.50;;;2.30;;
65825;SDS011;52586;-43.152;172.732;2023-05-20T07:51:36;3.35;;;2.15;;
65825;SDS011;52586;-43.152;172.732;2023-05-20T07:54:06;2.90;;;2.60;;
65825;SDS011;52586;-43.152;172.732;2023-05-20T07:56:39;2.85;;;2.60;;
65825;SDS011;52586;-43.152;172.732;2023-05-20T07:59:09;2.85;;;2.58;;
65825;SDS011;52586;-43.152;172.732;2023-05-20T08:01:40;3.08;;;2.72;;
65825;SDS011;52586;-43.152;172.732;2023-05-20T08:04:11;2.97;;;2.60;;
65825;SDS011;52586;-43.152;172.732;2023-05-20T08:06:41;2.63;;;2.35;;
65825;SDS011;52586;-43.152;172.732;2023-05-20T08:09:12;3.13;;;2.83;;
65825;SDS011;52586;-43.152;172.732;2023-05-20T08:11:45;3.90;;;2.75;;
65825;SDS011;52586;-43.152;172.732;2023-05-20T08:14:15;3.33;;;2.63;;
65825;SDS011;52586;-43.152;172.732;2023-05-20T08:16:46;2.60;;;2.40;;
65825;SDS011;52586;-43.152;172.732;2023-05-20T08:19:17;2.72;;;2.53;;
65825;SDS011;52586;-43.152;172.732;2023-05-20T08:21:50;2.60;;;2.40;;
65825;SDS011;52586;-43.152;172.732;2023-05-20T08:24:22;4.20;;;2.85;;
65825;SDS011;52586;-43.152;172.732;2023-05-20T08:26:54;2.95;;;2.65;;
65825;SDS011;52586;-43.152;172.732;2023-05-20T08:29:25;3.53;;;2.75;;
65825;SDS011;52586;-43.152;172.732;2023-05-20T08:31:55;2.53;;;2.33;;
65825;SDS011;52586;-43.152;172.732;2023-05-20T08:34:26;2.47;;;2.28;;
65825;SDS011;52586;-43.152;172.732;2023-05-20T08:36:57;2.83;;;2.55;;
65825;SDS011;52586;-43.152;172.732;2023-05-20T08:39:27;2.38;;;2.17;;
65825;SDS011;52586;-43.152;172.732;2023-05-20T08:42:00;2.67;;;2.45;;
65825;SDS011;52586;-43.152;172.732;2023-05-20T08:44:32;2.97;;;2.70;;
65825;SDS011;52586;-43.152;172.732;2023-05-20T08:47:03;2.58;;;2.20;;
65825;SDS011;52586;-43.152;172.732;2023-05-20T08:49:35;2.90;;;2.45;;
65825;SDS011;52586;-43.152;172.732;2023-05-20T08:52:06;2.97;;;2.63;;
65825;SDS011;52586;-43.152;172.732;2023-05-20T08:54:41;2.72;;;2.53;;
65825;SDS011;52586;-43.152;172.732;2023-05-20T08:57:15;3.30;;;2.40;;
65825;SDS011;52586;-43.152;172.732;2023-05-20T08:59:45;3.05;;;2.45;;
65825;SDS011;52586;-43.152;172.732;2023-05-20T09:02:16;3.25;;;2.47;;
65825;SDS011;52586;-43.152;172.732;2023-05-20T09:04:47;4.47;;;2.60;;
65825;SDS011;52586;-43.152;172.732;2023-05-20T09:07:25;3.22;;;2.22;;
65825;SDS011;52586;-43.152;172.732;2023-05-20T09:09:56;3.67;;;2.00;;
65825;SDS011;52586;-43.152;172.732;2023-05-20T09:12:29;2.75;;;2.47;;
65825;SDS011;52586;-43.152;172.732;2023-05-20T09:15:00;2.05;;;1.92;;
65825;SDS011;52586;-43.152;172.732;2023-05-20T09:17:31;2.85;;;2.40;;
65825;SDS011;52586;-43.152;172.732;2023-05-20T09:20:05;3.50;;;2.55;;
65825;SDS011;52586;-43.152;172.732;2023-05-20T09:22:37;2.72;;;2.40;;
65825;SDS011;52586;-43.152;172.732;2023-05-20T09:25:08;2.58;;;2.38;;
65825;SDS011;52586;-43.152;172.732;2023-05-20T09:27:41;2.97;;;2.60;;
65825;SDS011;52586;-43.152;172.732;2023-05-20T09:30:12;3.13;;;2.30;;
65825;SDS011;52586;-43.152;172.732;2023-05-20T09:32:42;2.50;;;1.90;;
65825;SDS011;52586;-43.152;172.732;2023-05-20T09:35:13;2.35;;;2.15;;
65825;SDS011;52586;-43.152;172.732;2023-05-20T09:37:44;2.97;;;2.03;;
65825;SDS011;52586;-43.152;172.732;2023-05-20T09:40:16;2.50;;;2.30;;
65825;SDS011;52586;-43.152;172.732;2023-05-20T09:42:52;3.25;;;2.20;;
65825;SDS011;52586;-43.152;172.732;2023-05-20T09:45:24;2.75;;;2.15;;
65825;SDS011;52586;-43.152;172.732;2023-05-20T09:47:55;2.67;;;2.20;;
65825;SDS011;52586;-43.152;172.732;2023-05-20T09:50:27;3.33;;;2.20;;
65825;SDS011;52586;-43.152;172.732;2023-05-20T09:53:01;2.85;;;2.30;;
65825;SDS011;52586;-43.152;172.732;2023-05-20T09:55:32;3.30;;;2.30;;
65825;SDS011;52586;-43.152;172.732;2023-05-20T09:58:05;2.47;;;2.28;;
65825;SDS011;52586;-43.152;172.732;2023-05-20T10:00:37;2.47;;;2.13;;
65825;SDS011;52586;-43.152;172.732;2023-05-20T10:03:08;2.47;;;2.20;;
65825;SDS011;52586;-43.152;172.732;2023-05-20T10:05:39;2.22;;;2.03;;
65825;SDS011;52586;-43.152;172.732;2023-05-20T10:08:22;2.63;;;2.13;;
65825;SDS011;52586;-43.152;172.732;2023-05-20T10:11:03;2.92;;;2.00;;
65825;SDS011;52586;-43.152;172.732;2023-05-20T10:13:47;2.25;;;2.05;;
65825;SDS011;52586;-43.152;172.732;2023-05-20T10:16:41;2.85;;;2.30;;
65825;SDS011;52586;-43.152;172.732;2023-05-20T10:19:18;3.25;;;2.20;;
65825;SDS011;52586;-43.152;172.732;2023-05-20T10:21:59;3.53;;;1.80;;
65825;SDS011;52586;-43.152;172.732;2023-05-20T10:24:31;2.42;;;2.00;;
65825;SDS011;52586;-43.152;172.732;2023-05-20T10:27:03;3.17;;;2.30;;
65825;SDS011;52586;-43.152;172.732;2023-05-20T10:29:44;2.28;;;2.08;;
65825;SDS011;52586;-43.152;172.732;2023-05-20T10:32:24;2.47;;;2.22;;
65825;SDS011;52586;-43.152;172.732;2023-05-20T10:34:58;2.40;;;2.05;;
65825;SDS011;52586;-43.152;172.732;2023-05-20T10:37:31;2.30;;;2.10;;
65825;SDS011;52586;-43.152;172.732;2023-05-20T10:40:08;2.40;;;1.90;;
65825;SDS011;52586;-43.152;172.732;2023-05-20T10:42:41;2.80;;;2.30;;
65825;SDS011;52586;-43.152;172.732;2023-05-20T10:45:25;2.30;;;2.10;;
65825;SDS011;52586;-43.152;172.732;2023-05-20T10:47:57;2.20;;;2.00;;
65825;SDS011;52586;-43.152;172.732;2023-05-20T10:50:32;2.45;;;2.08;;
65825;SDS011;52586;-43.152;172.732;2023-05-20T10:53:04;2.60;;;1.90;;
65825;SDS011;52586;-43.152;172.732;2023-05-20T10:55:36;4.32;;;2.20;;
65825;SDS011;52586;-43.152;172.732;2023-05-20T10:58:08;2.38;;;2.00;;
65825;SDS011;52586;-43.152;172.732;2023-05-20T11:00:41;2.28;;;2.00;;
65825;SDS011;52586;-43.152;172.732;2023-05-20T11:03:12;2.28;;;1.90;;
65825;SDS011;52586;-43.152;172.732;2023-05-20T11:05:44;2.20;;;1.88;;
65825;SDS011;52586;-43.152;172.732;2023-05-20T11:08:15;2.50;;;2.13;;
65825;SDS011;52586;-43.152;172.732;2023-05-20T11:10:45;2.50;;;2.30;;
65825;SDS011;52586;-43.152;172.732;2023-05-20T11:13:16;2.88;;;2.00;;
65825;SDS011;52586;-43.152;172.732;2023-05-20T11:15:49;2.38;;;2.08;;
65825;SDS011;52586;-43.152;172.732;2023-05-20T11:18:20;1.85;;;1.70;;
65825;SDS011;52586;-43.152;172.732;2023-05-20T11:20:51;3.85;;;1.98;;
65825;SDS011;52586;-43.152;172.732;2023-05-20T11:23:21;2.00;;;1.80;;
65825;SDS011;52586;-43.152;172.732;2023-05-20T11:25:52;2.20;;;1.58;;
65825;SDS011;52586;-43.152;172.732;2023-05-20T11:28:24;2.10;;;1.90;;
65825;SDS011;52586;-43.152;172.732;2023-05-20T11:30:56;2.28;;;2.08;;
65825;SDS011;52586;-43.152;172.732;2023-05-20T11:33:28;2.45;;;1.90;;
65825;SDS011;52586;-43.152;172.732;2023-05-20T11:35:59;1.70;;;1.60;;
65825;SDS011;52586;-43.152;172.732;2023-05-20T11:38:31;2.30;;;1.90;;
65825;SDS011;52586;-43.152;172.732;2023-05-20T11:41:01;2.60;;;1.85;;
65825;SDS011;52586;-43.152;172.732;2023-05-20T11:43:32;2.00;;;1.80;;
65825;SDS011;52586;-43.152;172.732;2023-05-20T11:46:05;2.40;;;1.90;;
65825;SDS011;52586;-43.152;172.732;2023-05-20T11:48:37;2.45;;;1.85;;
65825;SDS011;52586;-43.152;172.732;2023-05-20T11:51:09;1.75;;;1.65;;
65825;SDS011;52586;-43.152;172.732;2023-05-20T11:53:41;2.30;;;2.10;;
65825;SDS011;52586;-43.152;172.732;2023-05-20T11:56:14;2.00;;;1.80;;
65825;SDS011;52586;-43.152;172.732;2023-05-20T11:58:46;1.88;;;1.60;;
65825;SDS011;52586;-43.152;172.732;2023-05-20T12:01:19;2.45;;;1.60;;
65825;SDS011;52586;-43.152;172.732;2023-05-20T12:03:49;2.83;;;2.03;;
65825;SDS011;52586;-43.152;172.732;2023-05-20T12:06:20;1.95;;;1.60;;
65825;SDS011;52586;-43.152;172.732;2023-05-20T12:08:51;2.92;;;1.80;;
65825;SDS011;52586;-43.152;172.732;2023-05-20T12:11:21;2.70;;;1.83;;
65825;SDS011;52586;-43.152;172.732;2023-05-20T12:13:52;1.67;;;1.58;;
65825;SDS011;52586;-43.152;172.732;2023-05-20T12:16:24;1.80;;;1.70;;
65825;SDS011;52586;-43.152;172.732;2023-05-20T12:18:55;1.75;;;1.45;;
65825;SDS011;52586;-43.152;172.732;2023-05-20T12:21:26;2.53;;;1.85;;
65825;SDS011;52586;-43.152;172.732;2023-05-20T12:23:57;1.90;;;1.70;;
65825;SDS011;52586;-43.152;172.732;2023-05-20T12:26:30;2.30;;;1.95;;
65825;SDS011;52586;-43.152;172.732;2023-05-20T12:29:01;2.22;;;1.70;;
65825;SDS011;52586;-43.152;172.732;2023-05-20T12:31:33;1.88;;;1.50;;
65825;SDS011;52586;-43.152;172.732;2023-05-20T12:34:04;2.45;;;1.80;;
65825;SDS011;52586;-43.152;172.732;2023-05-20T12:36:35;3.00;;;1.60;;
65825;SDS011;52586;-43.152;172.732;2023-05-20T12:39:05;1.80;;;1.60;;
65825;SDS011;52586;-43.152;172.732;2023-05-20T12:41:37;2.13;;;1.50;;
65825;SDS011;52586;-43.152;172.732;2023-05-20T12:44:08;1.80;;;1.60;;
65825;SDS011;52586;-43.152;172.732;2023-05-20T12:46:40;2.85;;;1.50;;
65825;SDS011;52586;-43.152;172.732;2023-05-20T12:49:11;1.67;;;1.58;;
65825;SDS011;52586;-43.152;172.732;2023-05-20T12:51:42;2.00;;;1.67;;
65825;SDS011;52586;-43.152;172.732;2023-05-20T12:54:13;1.95;;;1.52;;
65825;SDS011;52586;-43.152;172.732;2023-05-20T12:56:44;1.90;;;1.70;;
65825;SDS011;52586;-43.152;172.732;2023-05-20T12:59:15;2.20;;;1.50;;
65825;SDS011;52586;-43.152;172.732;2023-05-20T13:01:48;1.52;;;1.40;;
65825;SDS011;52586;-43.152;172.732;2023-05-20T13:04:18;1.70;;;1.23;;
65825;SDS011;52586;-43.152;172.732;2023-05-20T13:06:49;1.35;;;1.20;;
65825;SDS011;52586;-43.152;172.732;2023-05-20T13:09:20;1.88;;;1.58;;
65825;SDS011;52586;-43.152;172.732;2023-05-20T13:11:51;1.60;;;1.50;;
65825;SDS011;52586;-43.152;172.732;2023-05-20T13:14:21;1.77;;;1.65;;
65825;SDS011;52586;-43.152;172.732;2023-05-20T13:16:54;1.40;;;1.30;;
65825;SDS011;52586;-43.152;172.732;2023-05-20T13:19:24;2.00;;;1.35;;
65825;SDS011;52586;-43.152;172.732;2023-05-20T13:21:55;1.55;;;1.30;;
65825;SDS011;52586;-43.152;172.732;2023-05-20T13:24:26;1.35;;;1.20;;
65825;SDS011;52586;-43.152;172.732;2023-05-20T13:26:56;2.08;;;1.52;;
65825;SDS011;52586;-43.152;172.732;2023-05-20T13:29:27;1.60;;;1.50;;
65825;SDS011;52586;-43.152;172.732;2023-05-20T13:32:00;1.65;;;1.40;;
65825;SDS011;52586;-43.152;172.732;2023-05-20T13:34:30;1.50;;;1.40;;
65825;SDS011;52586;-43.152;172.732;2023-05-20T13:37:01;2.13;;;1.60;;
65825;SDS011;52586;-43.152;172.732;2023-05-20T13:39:32;1.63;;;1.40;;
65825;SDS011;52586;-43.152;172.732;2023-05-20T13:42:03;2.95;;;1.60;;
65825;SDS011;52586;-43.152;172.732;2023-05-20T13:44:34;1.40;;;1.30;;
65825;SDS011;52586;-43.152;172.732;2023-05-20T13:47:06;1.73;;;1.38;;
65825;SDS011;52586;-43.152;172.732;2023-05-20T13:49:37;1.83;;;1.60;;
65825;SDS011;52586;-43.152;172.732;2023-05-20T13:52:07;1.50;;;1.40;;
65825;SDS011;52586;-43.152;172.732;2023-05-20T13:54:38;1.75;;;1.23;;
65825;SDS011;52586;-43.152;172.732;2023-05-20T13:57:12;1.50;;;1.40;;
65825;SDS011;52586;-43.152;172.732;2023-05-20T13:59:43;1.30;;;1.20;;
65825;SDS011;52586;-43.152;172.732;2023-05-20T14:02:15;1.48;;;1.38;;
65825;SDS011;52586;-43.152;172.732;2023-05-20T14:04:46;2.38;;;1.27;;
65825;SDS011;52586;-43.152;172.732;2023-05-20T14:07:16;1.50;;;1.40;;
65825;SDS011;52586;-43.152;172.732;2023-05-20T14:09:47;2.08;;;1.52;;
65825;SDS011;52586;-43.152;172.732;2023-05-20T14:12:18;1.40;;;1.30;;
65825;SDS011;52586;-43.152;172.732;2023-05-20T14:14:49;2.05;;;1.50;;
65825;SDS011;52586;-43.152;172.732;2023-05-20T14:17:22;1.45;;;1.20;;
65825;SDS011;52586;-43.152;172.732;2023-05-20T14:19:52;1.30;;;1.15;;
65825;SDS011;52586;-43.152;172.732;2023-05-20T14:22:23;1.38;;;1.17;;
65825;SDS011;52586;-43.152;172.732;2023-05-20T14:24:54;1.40;;;1.30;;
65825;SDS011;52586;-43.152;172.732;2023-05-20T14:27:25;1.58;;;1.23;;
65825;SDS011;52586;-43.152;172.732;2023-05-20T14:29:56;1.48;;;1.23;;
65825;SDS011;52586;-43.152;172.732;2023-05-20T14:32:29;1.52;;;1.40;;
65825;SDS011;52586;-43.152;172.732;2023-05-20T14:34:59;1.30;;;1.20;;